Air Navigation Services of Czech Republic
Airport: LKKB Updated:  25.03.2017 07:06:11  UTC
 METAR LKKB 25.03. 07:00 ...
METAR LKKB 250700Z VRB02KT CAVOK 05/02 Q1030 NOSIG =
 TAF LKKB 25.03. 05:00 ...
TAF LKKB 250500Z 2506/2606 VRB02KT CAVOK      BECMG 2508/2510 35006KT=